createdAt,value
2019-02-28T00:01:11.834Z,26.50
2019-02-28T00:03:36.291Z,23.73
2019-02-28T00:06:03.283Z,30.37
2019-02-28T00:08:30.331Z,28.77
2019-02-28T00:10:57.586Z,31.73
2019-02-28T00:13:24.634Z,26.50
2019-02-28T00:15:51.688Z,27.80
2019-02-28T00:18:18.936Z,28.03
2019-02-28T00:20:45.990Z,21.63
2019-02-28T00:23:13.034Z,21.90
2019-02-28T00:25:40.083Z,19.97
2019-02-28T00:28:07.148Z,25.10
2019-02-28T00:30:34.186Z,18.47
2019-02-28T00:33:01.229Z,24.97
2019-02-28T00:35:28.282Z,18.13
2019-02-28T00:37:56.657Z,21.47
2019-02-28T00:40:22.374Z,27.83
2019-02-28T00:42:50.737Z,27.93
2019-02-28T00:45:16.578Z,23.83
2019-02-28T00:47:43.621Z,29.97
2019-02-28T00:50:10.669Z,26.53
2019-02-28T00:52:37.723Z,22.23
2019-02-28T00:55:04.767Z,22.43
2019-02-28T00:57:32.532Z,26.60
2019-02-28T01:00:04.964Z,22.57
2019-02-28T01:02:28.480Z,26.87
2019-02-28T01:04:55.523Z,25.80
2019-02-28T01:07:22.572Z,22.97
2019-02-28T01:09:49.624Z,19.03
2019-02-28T01:12:19.395Z,21.43
2019-02-28T01:14:43.817Z,23.17
2019-02-28T01:17:10.866Z,23.57
2019-02-28T01:19:41.296Z,25.50
2019-02-28T01:22:06.704Z,27.83
2019-02-28T01:24:34.761Z,26.50
2019-02-28T01:27:00.908Z,28.67
2019-02-28T01:29:27.952Z,18.63
2019-02-28T01:31:55.002Z,16.77
2019-02-28T01:34:22.001Z,19.90
2019-02-28T01:36:50.531Z,17.27
2019-02-28T01:39:17.584Z,18.20
2019-02-28T01:41:45.290Z,25.20
2019-02-28T01:44:13.734Z,25.17
2019-02-28T01:46:40.773Z,23.97
2019-02-28T01:49:07.822Z,19.57
2019-02-28T01:51:36.811Z,19.40
2019-02-28T01:54:03.147Z,23.17
2019-02-28T01:56:30.198Z,25.60
2019-02-28T01:58:57.249Z,23.17
2019-02-28T02:01:24.302Z,19.97
2019-02-28T02:03:51.295Z,21.40
2019-02-28T02:06:18.288Z,25.33
2019-02-28T02:08:45.279Z,24.53
2019-02-28T02:11:13.161Z,27.43
2019-02-28T02:13:40.156Z,30.97
2019-02-28T02:16:07.201Z,22.27
2019-02-28T02:18:34.619Z,24.63
2019-02-28T02:21:02.935Z,27.73
2019-02-28T02:23:29.988Z,26.13
2019-02-28T02:25:57.033Z,29.70
2019-02-28T02:28:26.652Z,23.33
2019-02-28T02:30:52.245Z,31.03
2019-02-28T02:33:18.386Z,24.90
2019-02-28T02:35:45.440Z,28.20
2019-02-28T02:38:12.483Z,22.90
2019-02-28T02:40:39.550Z,28.33
2019-02-28T02:43:06.586Z,26.50
2019-02-28T02:45:33.529Z,28.67
2019-02-28T02:48:05.118Z,27.27
2019-02-28T02:50:34.412Z,26.40
2019-02-28T02:52:55.897Z,24.27
2019-02-28T02:55:27.550Z,25.43
2019-02-28T02:58:08.969Z,25.70
2019-02-28T03:00:35.993Z,28.40
2019-02-28T03:03:06.115Z,28.23
2019-02-28T03:05:34.940Z,33.30
2019-02-28T03:07:59.810Z,30.57
2019-02-28T03:10:26.131Z,31.03
2019-02-28T03:12:53.127Z,33.20
2019-02-28T03:15:25.190Z,31.40
2019-02-28T03:18:07.580Z,35.47
2019-02-28T03:20:55.363Z,33.53
2019-02-28T03:23:22.438Z,29.07
2019-02-28T03:25:49.486Z,32.03
2019-02-28T03:28:16.531Z,31.33
2019-02-28T03:30:43.588Z,31.60
2019-02-28T03:33:24.238Z,29.70
2019-02-28T03:35:43.113Z,31.23
2019-02-28T03:38:10.442Z,37.30
2019-02-28T03:40:39.925Z,23.93
2019-02-28T03:43:05.211Z,33.17
2019-02-28T03:45:33.918Z,29.87
2019-02-28T03:47:58.363Z,31.17
2019-02-28T03:50:22.385Z,25.87
2019-02-28T03:52:50.499Z,29.03
2019-02-28T03:55:17.648Z,27.40
2019-02-28T03:57:44.648Z,29.27
2019-02-28T04:00:11.747Z,36.60
2019-02-28T04:02:38.794Z,34.70
2019-02-28T04:05:05.944Z,30.37
2019-02-28T04:07:34.695Z,30.73
2019-02-28T04:10:00.301Z,28.30
2019-02-28T04:12:27.405Z,30.43
2019-02-28T04:14:54.451Z,33.47
2019-02-28T04:17:21.494Z,32.40
2019-02-28T04:19:48.544Z,33.67
2019-02-28T04:22:19.507Z,37.83
2019-02-28T04:24:46.386Z,30.57
2019-02-28T04:27:09.911Z,32.37
2019-02-28T04:29:36.942Z,32.33
2019-02-28T04:32:03.990Z,30.40
2019-02-28T04:34:31.043Z,31.90
2019-02-28T04:36:58.088Z,36.17
2019-02-28T04:39:25.039Z,34.77
2019-02-28T04:41:52.084Z,28.97
2019-02-28T04:44:19.152Z,31.10
2019-02-28T04:46:46.183Z,31.87
2019-02-28T04:49:13.187Z,29.17
2019-02-28T04:51:41.063Z,35.30
2019-02-28T04:54:07.426Z,35.27
2019-02-28T04:56:34.479Z,41.63
2019-02-28T04:59:27.834Z,34.17
2019-02-28T05:02:19.738Z,33.57
2019-02-28T05:05:05.860Z,33.17
2019-02-28T05:07:43.643Z,35.47
2019-02-28T05:10:10.723Z,30.13
2019-02-28T05:12:40.030Z,32.80
2019-02-28T05:15:05.736Z,35.63
2019-02-28T05:17:32.726Z,37.13
2019-02-28T05:19:59.732Z,33.90
2019-02-28T05:22:27.564Z,33.33
2019-02-28T05:24:53.949Z,35.43
2019-02-28T05:27:20.979Z,35.27
2019-02-28T05:29:47.984Z,37.83
2019-02-28T05:32:14.979Z,31.97
2019-02-28T05:34:42.021Z,35.80
2019-02-28T05:37:12.155Z,28.37
2019-02-28T05:39:36.127Z,36.93
2019-02-28T05:42:03.171Z,43.57
2019-02-28T05:44:30.163Z,49.17
2019-02-28T05:46:58.100Z,48.77
2019-02-28T05:49:24.417Z,39.70
2019-02-28T05:51:51.463Z,42.67
2019-02-28T05:54:18.534Z,45.10
2019-02-28T05:56:45.522Z,38.77
2019-02-28T05:59:12.513Z,42.10
2019-02-28T06:01:39.556Z,37.47
2019-02-28T06:04:06.604Z,37.47
2019-02-28T06:06:33.665Z,37.40
2019-02-28T06:09:00.808Z,40.20
2019-02-28T06:11:34.580Z,45.27
2019-02-28T06:13:56.846Z,31.80
2019-02-28T06:16:23.998Z,35.67
2019-02-28T06:18:52.074Z,26.97
2019-02-28T06:21:19.022Z,37.33
2019-02-28T06:23:46.185Z,38.33
2019-02-28T06:26:13.214Z,45.70
2019-02-28T06:28:40.224Z,57.40
2019-02-28T06:31:07.317Z,141.00
2019-02-28T06:33:34.432Z,110.30
2019-02-28T06:36:29.120Z,45.37
2019-02-28T06:39:26.762Z,32.63
2019-02-28T06:42:20.485Z,39.33
2019-02-28T06:44:58.727Z,37.03
2019-02-28T06:47:26.934Z,38.77
2019-02-28T06:49:55.572Z,42.23
2019-02-28T06:52:25.221Z,49.20
2019-02-28T06:54:50.571Z,25.67
2019-02-28T06:57:17.639Z,36.07
2019-02-28T06:59:44.662Z,39.87
2019-02-28T07:02:11.745Z,50.23
2019-02-28T07:04:38.915Z,46.47
2019-02-28T07:07:07.421Z,34.43
2019-02-28T07:09:33.558Z,38.23
2019-02-28T07:12:00.703Z,40.43
2019-02-28T07:14:51.240Z,32.97
2019-02-28T07:17:46.205Z,39.60
2019-02-28T07:20:35.111Z,37.20
2019-02-28T07:23:26.621Z,44.07
2019-02-28T07:25:52.474Z,23.50
2019-02-28T07:28:18.683Z,38.53
2019-02-28T07:30:45.747Z,41.30
2019-02-28T07:33:12.797Z,36.70
2019-02-28T07:35:39.830Z,36.53
2019-02-28T07:38:06.882Z,40.63
2019-02-28T07:40:33.947Z,15.50
2019-02-28T07:43:00.974Z,34.87
2019-02-28T07:45:29.606Z,39.60
2019-02-28T07:47:55.279Z,45.23
2019-02-28T07:50:22.309Z,36.23
2019-02-28T07:52:50.307Z,36.17
2019-02-28T07:55:17.778Z,38.60
2019-02-28T07:57:44.869Z,31.87
2019-02-28T08:00:36.347Z,39.13
2019-02-28T08:03:26.315Z,37.97
2019-02-28T08:05:53.462Z,33.77
2019-02-28T08:08:23.387Z,36.70
2019-02-28T08:10:49.219Z,29.43
2019-02-28T08:13:14.818Z,21.70
2019-02-28T08:15:41.862Z,39.07
2019-02-28T08:18:09.284Z,31.77
2019-02-28T08:20:36.384Z,40.00
2019-02-28T08:23:03.422Z,71.00
2019-02-28T08:25:55.542Z,46.67
2019-02-28T08:28:22.810Z,22.23
2019-02-28T08:30:54.969Z,61.60
2019-02-28T08:33:17.234Z,42.67
2019-02-28T08:35:44.259Z,33.77
2019-02-28T08:38:11.387Z,39.90
2019-02-28T08:40:38.682Z,40.97
2019-02-28T08:43:05.663Z,38.80
2019-02-28T08:45:33.557Z,42.47
2019-02-28T08:48:00.014Z,52.63
2019-02-28T08:50:27.063Z,44.93
2019-02-28T08:52:54.115Z,43.83
2019-02-28T08:55:28.350Z,44.97
2019-02-28T08:58:17.009Z,38.73
2019-02-28T09:00:44.030Z,46.37
2019-02-28T09:03:11.386Z,38.67
2019-02-28T09:05:38.439Z,40.13
2019-02-28T09:08:05.484Z,40.47
2019-02-28T09:10:32.560Z,42.93
2019-02-28T09:12:59.685Z,41.17
2019-02-28T09:15:30.152Z,40.20
2019-02-28T09:17:58.171Z,42.03
2019-02-28T09:20:21.137Z,38.63
2019-02-28T09:22:48.189Z,45.33
2019-02-28T09:25:22.072Z,42.03
2019-02-28T09:27:46.485Z,45.03
2019-02-28T09:30:22.160Z,42.33
2019-02-28T09:32:49.136Z,44.03
2019-02-28T09:35:16.195Z,47.27
2019-02-28T09:37:43.276Z,44.73
2019-02-28T09:40:10.325Z,43.77
2019-02-28T09:43:03.860Z,44.63
2019-02-28T09:45:32.275Z,41.47
2019-02-28T09:48:01.903Z,44.97
2019-02-28T09:50:26.589Z,41.50
2019-02-28T09:52:53.648Z,42.57
2019-02-28T09:55:20.673Z,41.60
2019-02-28T09:57:53.802Z,45.63
2019-02-28T10:00:15.749Z,46.30
2019-02-28T10:02:43.921Z,47.70
2019-02-28T10:05:11.659Z,45.40
2019-02-28T10:07:37.209Z,46.67
2019-02-28T10:10:04.399Z,48.53
2019-02-28T10:12:31.455Z,37.30
2019-02-28T10:15:00.652Z,41.47
2019-02-28T10:17:28.609Z,37.20
2019-02-28T10:19:53.089Z,37.43
2019-02-28T10:22:19.958Z,35.63
2019-02-28T10:24:46.999Z,38.90
2019-02-28T10:27:14.051Z,37.53
2019-02-28T10:29:41.908Z,38.17
2019-02-28T10:32:23.607Z,33.77
2019-02-28T10:34:50.663Z,37.17
2019-02-28T10:37:19.309Z,35.10
2019-02-28T10:39:44.821Z,35.87
2019-02-28T10:42:11.905Z,41.77
2019-02-28T10:44:39.212Z,40.17
2019-02-28T10:47:06.254Z,41.80
2019-02-28T10:49:33.254Z,43.23
2019-02-28T10:52:00.322Z,38.90
2019-02-28T10:54:27.661Z,40.27
2019-02-28T10:56:54.726Z,36.10
2019-02-28T10:59:24.462Z,39.77
2019-02-28T11:01:48.922Z,35.57
2019-02-28T11:04:16.030Z,38.30
2019-02-28T11:06:46.787Z,37.03
2019-02-28T11:09:12.312Z,37.97
2019-02-28T11:11:42.562Z,37.35
2019-02-28T11:14:08.873Z,43.97
2019-02-28T11:16:37.856Z,29.60
2019-02-28T11:19:04.826Z,30.52
2019-02-28T11:21:31.916Z,32.38
2019-02-28T11:23:59.053Z,27.95
2019-02-28T11:26:26.047Z,27.80
2019-02-28T11:28:53.199Z,26.90
2019-02-28T11:31:20.369Z,37.00
2019-02-28T11:33:48.018Z,33.45
2019-02-28T11:36:15.061Z,22.80
2019-02-28T11:38:42.217Z,24.40
2019-02-28T11:41:09.626Z,26.58
2019-02-28T11:43:38.405Z,23.12
2019-02-28T11:46:03.971Z,17.90
2019-02-28T11:48:31.069Z,22.00
2019-02-28T11:50:58.340Z,15.50
2019-02-28T11:53:25.426Z,14.05
2019-02-28T11:55:53.634Z,13.85
2019-02-28T11:58:20.256Z,12.93
2019-02-28T12:00:47.233Z,12.15
2019-02-28T12:03:14.352Z,11.27
2019-02-28T12:05:41.793Z,10.43
2019-02-28T12:08:10.323Z,12.15
2019-02-28T12:10:35.935Z,13.90
2019-02-28T12:13:03.356Z,9.18
2019-02-28T12:15:30.507Z,10.27
2019-02-28T12:18:03.679Z,9.68
2019-02-28T12:20:26.519Z,11.30
2019-02-28T12:22:52.363Z,11.52
2019-02-28T12:25:19.476Z,8.25
2019-02-28T12:27:46.973Z,11.98
2019-02-28T12:30:18.673Z,9.40
2019-02-28T12:32:44.198Z,7.55
2019-02-28T12:35:11.709Z,9.63
2019-02-28T12:37:38.860Z,12.45
2019-02-28T12:40:11.588Z,12.48
2019-02-28T12:42:38.690Z,9.02
2019-02-28T12:45:06.769Z,9.82
2019-02-28T12:47:33.915Z,15.10
2019-02-28T12:50:00.961Z,11.12
2019-02-28T12:52:28.109Z,7.90
2019-02-28T12:54:56.874Z,9.13
2019-02-28T12:57:23.136Z,9.93
2019-02-28T12:59:50.175Z,8.60
2019-02-28T13:02:17.192Z,12.20
2019-02-28T13:05:14.941Z,9.45
2019-02-28T13:07:38.972Z,10.25
2019-02-28T13:10:06.120Z,7.68
2019-02-28T13:12:33.172Z,13.02
2019-02-28T13:15:00.468Z,7.57
2019-02-28T13:17:28.361Z,8.15
2019-02-28T13:19:56.553Z,10.77
2019-02-28T13:22:23.314Z,9.45
2019-02-28T13:24:49.026Z,9.23
2019-02-28T13:27:16.179Z,9.82
2019-02-28T13:29:43.226Z,8.93
2019-02-28T13:32:10.395Z,12.23
2019-02-28T13:34:37.519Z,13.95
2019-02-28T13:37:04.782Z,9.90
2019-02-28T13:39:32.747Z,11.55
2019-02-28T13:42:03.014Z,9.50
2019-02-28T13:44:26.132Z,12.13
2019-02-28T13:46:53.250Z,12.75
2019-02-28T13:49:20.341Z,12.75
2019-02-28T13:51:47.385Z,8.70
2019-02-28T13:54:14.946Z,9.90
2019-02-28T13:56:43.116Z,10.30
2019-02-28T13:59:10.272Z,12.55
2019-02-28T14:01:37.214Z,12.55
2019-02-28T14:04:04.265Z,12.05
2019-02-28T14:06:32.447Z,11.15
2019-02-28T14:08:59.511Z,12.63
2019-02-28T14:11:26.639Z,11.18
2019-02-28T14:13:54.003Z,13.45
2019-02-28T14:16:26.339Z,13.50
2019-02-28T14:18:49.468Z,10.32
2019-02-28T14:21:16.471Z,15.35
2019-02-28T14:23:43.529Z,14.07
2019-02-28T14:26:11.382Z,11.12
2019-02-28T14:28:38.026Z,16.98
2019-02-28T14:31:05.126Z,13.60
2019-02-28T14:33:32.282Z,10.82
2019-02-28T14:35:59.428Z,12.68
2019-02-28T14:38:29.593Z,14.00
2019-02-28T14:40:53.762Z,17.12
2019-02-28T14:43:20.847Z,12.27
2019-02-28T14:45:47.899Z,10.15
2019-02-28T14:48:41.233Z,13.65
2019-02-28T14:51:32.304Z,10.63
2019-02-28T14:53:59.303Z,11.63
2019-02-28T14:56:26.352Z,12.30
2019-02-28T14:58:54.518Z,10.25
2019-02-28T15:01:20.571Z,14.13
2019-02-28T15:03:47.715Z,11.12
2019-02-28T15:06:14.859Z,18.08
2019-02-28T15:08:41.910Z,12.32
2019-02-28T15:11:10.297Z,9.88
2019-02-28T15:13:36.203Z,9.02
2019-02-28T15:16:03.247Z,11.55
2019-02-28T15:18:30.271Z,12.63
2019-02-28T15:20:58.318Z,10.95
2019-02-28T15:23:25.534Z,12.98
2019-02-28T15:25:54.194Z,11.32
2019-02-28T15:28:19.928Z,11.38
2019-02-28T15:30:47.081Z,12.18
2019-02-28T15:33:15.419Z,16.35
2019-02-28T15:35:42.523Z,12.15
2019-02-28T15:38:10.386Z,11.65
2019-02-28T15:40:37.641Z,10.25
2019-02-28T15:43:04.726Z,11.57
2019-02-28T15:45:31.830Z,12.68
2019-02-28T15:48:00.431Z,14.50
2019-02-28T15:50:26.548Z,13.00
2019-02-28T15:52:53.693Z,11.40
2019-02-28T15:55:21.213Z,12.32
2019-02-28T15:57:48.419Z,16.20
2019-02-28T16:00:15.573Z,15.38
2019-02-28T16:02:43.115Z,12.43
2019-02-28T16:05:09.756Z,12.93
2019-02-28T16:07:36.802Z,12.82
2019-02-28T16:10:04.315Z,8.88
2019-02-28T16:12:31.415Z,12.43
2019-02-28T16:14:58.430Z,13.57
2019-02-28T16:17:25.391Z,13.13
2019-02-28T16:19:53.261Z,15.00
2019-02-28T16:22:19.511Z,12.70
2019-02-28T16:24:46.670Z,11.63
2019-02-28T16:27:40.901Z,12.43
2019-02-28T16:33:25.884Z,11.02
2019-02-28T16:35:53.907Z,10.27
2019-02-28T16:38:20.951Z,13.60
2019-02-28T16:40:48.007Z,10.23
2019-02-28T16:43:17.482Z,10.52
2019-02-28T16:45:50.407Z,10.23
2019-02-28T16:48:17.457Z,13.65
2019-02-28T16:50:44.490Z,13.48
2019-02-28T16:53:15.300Z,9.30
2019-02-28T16:55:38.639Z,9.90
2019-02-28T16:58:05.764Z,12.43
2019-02-28T17:00:32.741Z,18.63
2019-02-28T17:03:24.081Z,20.03
2019-02-28T17:05:51.375Z,15.00
2019-02-28T17:08:19.438Z,21.03
2019-02-28T17:10:46.075Z,28.53
2019-02-28T17:13:29.925Z,26.53
2019-02-28T17:16:01.736Z,19.43
2019-02-28T17:18:28.320Z,19.87
2019-02-28T17:20:55.359Z,28.00
2019-02-28T17:23:22.416Z,19.13
2019-02-28T17:25:49.505Z,22.53
2019-02-28T17:28:18.207Z,16.47
2019-02-28T17:30:45.844Z,30.17
2019-02-28T17:33:12.447Z,34.63
2019-02-28T17:35:39.493Z,32.23
2019-02-28T17:38:06.553Z,24.70
2019-02-28T17:40:33.593Z,30.87
2019-02-28T17:43:01.049Z,23.47
2019-02-28T17:45:28.713Z,15.70
2019-02-28T17:48:12.911Z,23.20
2019-02-28T17:50:47.908Z,15.10
2019-02-28T17:53:20.885Z,18.70
2019-02-28T17:55:55.313Z,18.30
2019-02-28T17:58:33.156Z,16.83
2019-02-28T18:01:03.334Z,13.80
2019-02-28T18:03:34.234Z,18.63
2019-02-28T18:06:08.760Z,15.80
2019-02-28T18:08:58.423Z,19.27
2019-02-28T18:11:49.565Z,11.93
2019-02-28T18:14:53.691Z,22.27
2019-02-28T18:17:45.479Z,22.10
2019-02-28T18:20:14.549Z,22.73
2019-02-28T18:22:44.195Z,17.83
2019-02-28T18:25:22.144Z,22.33
2019-02-28T18:28:04.961Z,17.40
2019-02-28T18:30:50.140Z,21.67
2019-02-28T18:33:19.341Z,24.17
2019-02-28T18:35:44.385Z,15.47
2019-02-28T18:38:11.592Z,18.63
2019-02-28T18:40:38.858Z,12.87
2019-02-28T18:43:05.808Z,13.60
2019-02-28T18:45:56.874Z,17.30
2019-02-28T18:48:44.507Z,15.63
2019-02-28T18:51:11.603Z,14.07
2019-02-28T18:53:39.246Z,19.83
2019-02-28T18:56:07.308Z,12.17
2019-02-28T18:58:35.662Z,14.20
2019-02-28T19:01:06.783Z,15.07
2019-02-28T19:03:35.991Z,11.53
2019-02-28T19:06:08.324Z,11.70
2019-02-28T19:08:35.604Z,14.90
2019-02-28T19:11:03.493Z,13.10
2019-02-28T19:13:33.381Z,13.97
2019-02-28T19:16:00.713Z,12.07
2019-02-28T19:18:28.470Z,11.80
2019-02-28T19:20:55.785Z,15.10
2019-02-28T19:23:26.470Z,15.83
2019-02-28T19:25:57.594Z,16.37
2019-02-28T19:28:52.437Z,20.30
2019-02-28T19:31:47.238Z,13.73
2019-02-28T19:34:14.262Z,18.63
2019-02-28T19:36:44.019Z,15.13
2019-02-28T19:39:15.532Z,12.57
2019-02-28T19:41:44.665Z,17.80
2019-02-28T19:44:13.455Z,16.73
2019-02-28T19:46:44.059Z,12.63
2019-02-28T19:49:11.078Z,16.20
2019-02-28T19:51:40.423Z,16.50
2019-02-28T19:54:11.019Z,14.97
2019-02-28T19:56:38.294Z,27.67
2019-02-28T19:59:05.971Z,15.83
2019-02-28T20:01:34.642Z,20.20
2019-02-28T20:04:05.404Z,16.20
2019-02-28T20:06:32.612Z,19.00
2019-02-28T20:08:59.890Z,18.27
2019-02-28T20:11:27.215Z,18.90
2019-02-28T20:13:54.264Z,16.40
2019-02-28T20:16:21.321Z,14.17
2019-02-28T20:18:50.376Z,16.10
2019-02-28T20:21:15.621Z,19.07
2019-02-28T20:23:42.662Z,20.43
2019-02-28T20:26:38.418Z,20.70
2019-02-28T20:29:29.920Z,19.23
2019-02-28T20:31:56.908Z,18.33
2019-02-28T20:34:25.062Z,14.63
2019-02-28T20:36:53.552Z,15.70
2019-02-28T20:39:20.763Z,15.73
2019-02-28T20:41:47.916Z,16.77
2019-02-28T20:47:03.009Z,29.17
2019-02-28T20:49:31.391Z,23.17
2019-02-28T20:52:02.454Z,20.97
2019-02-28T20:54:29.473Z,19.20
2019-02-28T20:57:00.521Z,23.83
2019-02-28T20:59:29.043Z,30.73
2019-02-28T21:01:56.052Z,25.20
2019-02-28T21:04:23.203Z,21.43
2019-02-28T21:07:14.279Z,19.03
2019-02-28T21:09:44.860Z,34.73
2019-02-28T21:12:10.154Z,23.20
2019-02-28T21:14:37.164Z,22.13
2019-02-28T21:17:05.167Z,23.57
2019-02-28T21:19:32.422Z,28.33
2019-02-28T21:21:59.497Z,29.00
2019-02-28T21:24:26.535Z,46.77
2019-02-28T21:26:54.180Z,43.97
2019-02-28T21:29:21.239Z,33.50
2019-02-28T21:31:48.326Z,75.97
2019-02-28T21:34:15.530Z,45.87
2019-02-28T21:36:43.045Z,35.43
2019-02-28T21:39:10.083Z,25.27
2019-02-28T21:41:37.193Z,32.87
2019-02-28T21:44:04.188Z,24.00
2019-02-28T21:46:31.188Z,37.77
2019-02-28T21:48:58.231Z,25.57
2019-02-28T21:51:25.436Z,22.37
2019-02-28T21:53:52.533Z,40.50
2019-02-28T21:56:19.582Z,29.17
2019-02-28T21:58:46.653Z,25.50
2019-02-28T22:01:14.400Z,33.90
2019-02-28T22:03:41.652Z,33.23
2019-02-28T22:06:08.703Z,37.70
2019-02-28T22:08:43.279Z,19.70
2019-02-28T22:11:10.385Z,20.53
2019-02-28T22:13:37.369Z,20.43
2019-02-28T22:16:04.372Z,26.60
2019-02-28T22:18:31.417Z,31.07
2019-02-28T22:20:58.465Z,23.33
2019-02-28T22:23:25.496Z,23.37
2019-02-28T22:25:52.458Z,38.17
2019-02-28T22:28:19.513Z,28.13
2019-02-28T22:31:01.715Z,28.13
2019-02-28T22:33:32.752Z,27.93
2019-02-28T22:36:20.020Z,23.40
2019-02-28T22:38:48.765Z,23.90
2019-02-28T22:41:15.819Z,22.47
2019-02-28T22:43:45.465Z,23.47
2019-02-28T22:46:12.577Z,38.50
2019-02-28T22:48:39.779Z,35.53
2019-02-28T22:51:06.889Z,29.67
2019-02-28T22:53:33.928Z,25.83
2019-02-28T22:56:00.972Z,29.63
2019-02-28T22:58:28.027Z,33.87
2019-02-28T23:00:59.735Z,76.07
2019-02-28T23:03:26.827Z,17.87
2019-02-28T23:05:56.246Z,17.07
2019-02-28T23:08:23.286Z,20.30
2019-02-28T23:10:50.271Z,25.20
2019-02-28T23:13:17.273Z,22.33
2019-02-28T23:15:44.323Z,26.17
2019-02-28T23:18:11.376Z,22.47
2019-02-28T23:20:38.419Z,22.93
2019-02-28T23:23:05.492Z,16.07
2019-02-28T23:25:32.522Z,22.87
2019-02-28T23:28:05.451Z,20.23
2019-02-28T23:30:32.553Z,29.07
2019-02-28T23:32:59.705Z,25.37
2019-02-28T23:35:27.631Z,25.57
2019-02-28T23:37:54.621Z,25.57
2019-02-28T23:40:21.619Z,24.77
2019-02-28T23:42:48.615Z,21.53
2019-02-28T23:45:15.664Z,17.37
2019-02-28T23:47:42.659Z,19.07
2019-02-28T23:50:09.658Z,22.03
2019-02-28T23:52:36.713Z,17.77
2019-02-28T23:55:03.863Z,16.70
2019-02-28T23:57:30.906Z,22.73
2019-02-28T23:59:58.882Z,17.00
